createdAt,value
2023-08-08T00:00:27.036Z,101630.00
2023-08-08T00:02:53.909Z,101618.00
2023-08-08T00:05:23.192Z,101627.00
2023-08-08T00:07:49.920Z,101629.00
2023-08-08T00:10:16.858Z,101632.00
2023-08-08T00:12:43.489Z,101630.00
2023-08-08T00:15:10.538Z,101631.00
2023-08-08T00:17:37.273Z,101640.00
2023-08-08T00:20:04.448Z,101638.00
2023-08-08T00:22:31.149Z,101631.00
2023-08-08T00:25:00.065Z,101636.00
2023-08-08T00:27:28.908Z,101640.00
2023-08-08T00:29:55.984Z,101640.00
2023-08-08T00:32:22.623Z,101636.00
2023-08-08T00:34:51.562Z,101633.00
2023-08-08T00:37:18.238Z,101625.00
2023-08-08T00:39:47.434Z,101627.00
2023-08-08T00:42:14.568Z,101627.00
2023-08-08T00:44:45.768Z,101629.00
2023-08-08T00:47:12.595Z,101628.00
2023-08-08T00:49:41.675Z,101621.00
2023-08-08T00:52:11.512Z,101624.00
2023-08-08T00:54:38.181Z,101620.00
2023-08-08T00:57:09.788Z,101614.00
2023-08-08T00:59:39.123Z,101622.00
2023-08-08T01:02:06.069Z,101606.00
2023-08-08T01:04:32.922Z,101606.00
2023-08-08T01:07:16.812Z,101608.00
2023-08-08T01:09:51.706Z,101600.00
2023-08-08T01:12:18.709Z,101607.00
2023-08-08T01:14:46.246Z,101597.00
2023-08-08T01:17:14.442Z,101603.00
2023-08-08T01:19:43.864Z,101597.00
2023-08-08T01:22:36.795Z,101592.00
2023-08-08T01:25:04.159Z,101600.00
2023-08-08T01:27:30.856Z,101588.00
2023-08-08T01:29:59.564Z,101596.00
2023-08-08T01:32:26.273Z,101599.00
2023-08-08T01:34:54.975Z,101595.00
2023-08-08T01:37:43.993Z,101592.00
2023-08-08T01:40:12.898Z,101586.00
2023-08-08T01:42:44.328Z,101584.00
2023-08-08T01:45:16.736Z,101589.00
2023-08-08T01:47:43.687Z,101577.00
2023-08-08T01:50:15.344Z,101576.00
2023-08-08T01:52:44.461Z,101573.00
2023-08-08T01:55:11.587Z,101581.00
2023-08-08T01:57:40.332Z,101580.00
2023-08-08T02:00:09.133Z,101571.00
2023-08-08T02:02:38.883Z,101570.00
2023-08-08T02:05:11.145Z,101571.00
2023-08-08T02:07:37.926Z,101561.00
2023-08-08T02:10:05.170Z,101565.00
2023-08-08T02:12:36.526Z,101565.00
2023-08-08T02:15:08.714Z,101566.00
2023-08-08T02:17:41.345Z,101563.00
2023-08-08T02:20:08.945Z,101563.00
2023-08-08T02:22:35.843Z,101564.00
2023-08-08T02:25:02.567Z,101568.00
2023-08-08T02:27:31.798Z,101567.00
2023-08-08T02:29:58.762Z,101560.00
2023-08-08T02:32:25.565Z,101567.00
2023-08-08T02:34:52.250Z,101570.00
2023-08-08T02:37:21.103Z,101565.00
2023-08-08T02:39:47.760Z,101563.00
2023-08-08T02:42:14.461Z,101562.00
2023-08-08T02:44:43.967Z,101560.00
2023-08-08T02:47:13.060Z,101562.00
2023-08-08T02:49:39.705Z,101559.00
2023-08-08T02:52:11.220Z,101563.00
2023-08-08T02:54:37.916Z,101554.00
2023-08-08T02:57:07.296Z,101558.00
2023-08-08T02:59:33.964Z,101551.00
2023-08-08T03:02:04.669Z,101557.00
2023-08-08T03:04:33.697Z,101562.00
2023-08-08T03:07:02.944Z,101556.00
2023-08-08T03:09:32.110Z,101554.00
2023-08-08T03:11:59.132Z,101554.00
2023-08-08T03:14:25.962Z,101547.00
2023-08-08T03:16:52.605Z,101556.00
2023-08-08T03:19:19.286Z,101554.00
2023-08-08T03:21:48.286Z,101550.00
2023-08-08T03:24:14.973Z,101547.00
2023-08-08T03:26:43.663Z,101545.00
2023-08-08T03:29:13.958Z,101545.00
2023-08-08T03:31:40.688Z,101540.00
2023-08-08T03:34:09.565Z,101548.00
2023-08-08T03:36:41.090Z,101538.00
2023-08-08T03:39:10.855Z,101535.00
2023-08-08T03:41:38.059Z,101540.00
2023-08-08T03:44:04.954Z,101536.00
2023-08-08T03:46:36.456Z,101533.00
2023-08-08T03:49:08.009Z,101533.00
2023-08-08T03:51:34.811Z,101534.00
2023-08-08T03:54:01.439Z,101542.00
2023-08-08T03:56:31.110Z,101541.00
2023-08-08T03:59:00.551Z,101537.00
2023-08-08T04:01:27.332Z,101534.00
2023-08-08T04:03:56.694Z,101536.00
2023-08-08T04:06:25.591Z,101530.00
2023-08-08T04:08:52.246Z,101523.00
2023-08-08T04:11:18.957Z,101531.00
2023-08-08T04:13:45.635Z,101535.00
2023-08-08T04:16:12.315Z,101530.00
2023-08-08T04:18:38.993Z,101537.00
2023-08-08T04:21:05.651Z,101541.00
2023-08-08T04:23:32.251Z,101535.00
2023-08-08T04:25:58.998Z,101544.00
2023-08-08T04:28:25.633Z,101543.00
2023-08-08T04:30:52.334Z,101546.00
2023-08-08T04:33:18.991Z,101542.00
2023-08-08T04:35:48.672Z,101551.00
2023-08-08T04:38:18.586Z,101549.00
2023-08-08T04:40:49.980Z,101554.00
2023-08-08T04:43:16.594Z,101553.00
2023-08-08T04:45:43.272Z,101548.00
2023-08-08T04:48:09.995Z,101553.00
2023-08-08T04:50:36.695Z,101555.00
2023-08-08T04:53:03.363Z,101557.00
2023-08-08T04:55:30.018Z,101548.00
2023-08-08T04:57:56.661Z,101563.00
2023-08-08T05:00:23.548Z,101563.00
2023-08-08T05:02:54.822Z,101564.00
2023-08-08T05:05:21.693Z,101550.00
2023-08-08T05:07:49.720Z,101552.00
2023-08-08T05:10:16.436Z,101554.00
2023-08-08T05:12:44.080Z,101550.00
2023-08-08T05:15:13.435Z,101546.00
2023-08-08T05:17:42.362Z,101550.00
2023-08-08T05:20:13.283Z,101556.00
2023-08-08T05:22:42.337Z,101555.00
2023-08-08T05:25:13.896Z,101554.00
2023-08-08T05:27:45.280Z,101555.00
2023-08-08T05:30:14.526Z,101559.00
2023-08-08T05:32:43.825Z,101551.00
2023-08-08T05:35:15.259Z,101553.00
2023-08-08T05:37:42.045Z,101557.00
2023-08-08T05:40:14.597Z,101552.00
2023-08-08T05:42:41.425Z,101553.00
2023-08-08T05:45:11.448Z,101550.00
2023-08-08T05:47:38.188Z,101547.00
2023-08-08T05:50:05.217Z,101546.00
2023-08-08T05:52:34.622Z,101546.00
2023-08-08T05:55:01.669Z,101549.00
2023-08-08T05:57:28.676Z,101545.00
2023-08-08T05:59:55.418Z,101548.00
2023-08-08T06:02:22.652Z,101551.00
2023-08-08T06:04:49.382Z,101548.00
2023-08-08T06:07:18.219Z,101542.00
2023-08-08T06:09:44.878Z,101546.00
2023-08-08T06:12:14.620Z,101559.00
2023-08-08T06:14:41.330Z,101552.00
2023-08-08T06:17:10.635Z,101565.00
2023-08-08T06:19:37.383Z,101558.00
2023-08-08T06:22:06.547Z,101560.00
2023-08-08T06:24:35.468Z,101563.00
2023-08-08T06:27:06.822Z,101562.00
2023-08-08T06:29:33.645Z,101560.00
2023-08-08T06:32:01.025Z,101562.00
2023-08-08T06:34:27.964Z,101558.00
2023-08-08T06:36:54.613Z,101555.00
2023-08-08T06:39:22.914Z,101554.00
2023-08-08T06:41:49.754Z,101549.00
2023-08-08T06:44:16.406Z,101547.00
2023-08-08T06:46:43.096Z,101552.00
2023-08-08T06:49:14.451Z,101551.00
2023-08-08T06:51:41.213Z,101553.00
2023-08-08T06:54:10.406Z,101562.00
2023-08-08T06:56:37.171Z,101550.00
2023-08-08T06:59:03.834Z,101549.00
2023-08-08T07:01:30.892Z,101555.00
2023-08-08T07:03:58.588Z,101550.00
2023-08-08T07:06:25.928Z,101552.00
2023-08-08T07:08:52.570Z,101548.00
2023-08-08T07:11:19.325Z,101551.00
2023-08-08T07:13:45.996Z,101551.00
2023-08-08T07:16:12.767Z,101550.00
2023-08-08T07:18:44.214Z,101558.00
2023-08-08T07:21:10.942Z,101546.00
2023-08-08T07:23:37.621Z,101555.00
2023-08-08T07:26:06.528Z,101552.00
2023-08-08T07:28:35.522Z,101550.00
2023-08-08T07:31:04.607Z,101550.00
2023-08-08T07:33:31.551Z,101552.00
2023-08-08T07:35:58.364Z,101554.00
2023-08-08T07:38:25.001Z,101556.00
2023-08-08T07:40:51.938Z,101561.00
2023-08-08T07:43:18.575Z,101548.00
2023-08-08T07:45:47.451Z,101556.00
2023-08-08T07:48:14.134Z,101551.00
2023-08-08T07:50:40.853Z,101547.00
2023-08-08T07:53:07.550Z,101546.00
2023-08-08T07:55:34.221Z,101552.00
2023-08-08T07:58:03.358Z,101551.00
2023-08-08T08:00:29.970Z,101555.00
2023-08-08T08:02:56.734Z,101551.00
2023-08-08T08:05:25.806Z,101550.00
2023-08-08T08:07:55.121Z,101547.00
2023-08-08T08:10:24.286Z,101545.00
2023-08-08T08:12:59.203Z,101544.00
2023-08-08T08:15:29.223Z,101538.00
2023-08-08T08:17:55.970Z,101534.00
2023-08-08T08:20:26.302Z,101533.00
2023-08-08T08:22:53.051Z,101537.00
2023-08-08T08:25:22.144Z,101539.00
2023-08-08T08:27:48.851Z,101537.00
2023-08-08T08:30:19.142Z,101534.00
2023-08-08T08:32:46.782Z,101540.00
2023-08-08T08:35:14.388Z,101551.00
2023-08-08T08:37:43.474Z,101550.00
2023-08-08T08:40:11.736Z,101568.00
2023-08-08T08:42:40.289Z,101570.00
2023-08-08T08:45:10.130Z,101575.00
2023-08-08T08:47:45.136Z,101579.00
2023-08-08T08:50:12.030Z,101583.00
2023-08-08T08:52:38.751Z,101575.00
2023-08-08T08:55:08.288Z,101579.00
2023-08-08T08:57:36.027Z,101585.00
2023-08-08T09:00:04.382Z,101581.00
2023-08-08T09:02:31.771Z,101586.00
2023-08-08T09:04:59.866Z,101578.00
2023-08-08T09:07:31.176Z,101587.00
2023-08-08T09:10:00.177Z,101585.00
2023-08-08T09:12:29.588Z,101584.00
2023-08-08T09:15:07.673Z,101582.00
2023-08-08T09:17:47.205Z,101581.00
2023-08-08T09:20:14.974Z,101590.00
2023-08-08T09:22:46.484Z,101579.00
2023-08-08T09:25:13.277Z,101597.00
2023-08-08T09:27:42.177Z,101600.00
2023-08-08T09:30:10.575Z,101590.00
2023-08-08T09:32:37.276Z,101592.00
2023-08-08T09:35:04.569Z,101600.00
2023-08-08T09:37:33.696Z,101594.00
2023-08-08T09:40:06.453Z,101599.00
2023-08-08T09:42:35.594Z,101602.00
2023-08-08T09:45:03.383Z,101604.00
2023-08-08T09:47:33.178Z,101604.00
2023-08-08T09:50:06.446Z,101590.00
2023-08-08T09:52:35.530Z,101589.00
2023-08-08T09:55:09.435Z,101588.00
2023-08-08T09:57:37.057Z,101591.00
2023-08-08T10:00:06.767Z,101574.00
2023-08-08T10:02:37.090Z,101586.00
2023-08-08T10:05:05.889Z,101583.00
2023-08-08T10:07:35.040Z,101580.00
2023-08-08T10:10:04.672Z,101582.00
2023-08-08T10:12:32.210Z,101580.00
2023-08-08T10:15:01.383Z,101572.00
2023-08-08T10:17:29.018Z,101581.00
2023-08-08T10:19:56.475Z,101580.00
2023-08-08T10:22:25.410Z,101582.00
2023-08-08T10:24:56.184Z,101585.00
2023-08-08T10:27:40.487Z,101588.00
2023-08-08T10:30:11.957Z,101579.00
2023-08-08T10:32:47.832Z,101582.00
2023-08-08T10:35:14.901Z,101570.00
2023-08-08T10:37:55.297Z,101580.00
2023-08-08T10:40:22.318Z,101581.00
2023-08-08T10:42:48.973Z,101582.00
2023-08-08T10:45:19.925Z,101583.00
2023-08-08T10:47:46.701Z,101565.00
2023-08-08T10:50:23.341Z,101570.00
2023-08-08T10:52:53.246Z,101571.00
2023-08-08T10:55:27.710Z,101570.00
2023-08-08T10:57:55.782Z,101564.00
2023-08-08T11:00:36.174Z,101574.00
2023-08-08T11:03:06.050Z,101568.00
2023-08-08T11:05:39.579Z,101565.00
2023-08-08T11:08:07.672Z,101577.00
2023-08-08T11:10:38.587Z,101583.00
2023-08-08T11:13:09.720Z,101586.00
2023-08-08T11:15:40.310Z,101575.00
2023-08-08T11:18:07.313Z,101573.00
2023-08-08T11:20:35.979Z,101577.00
2023-08-08T11:23:04.836Z,101568.00
2023-08-08T11:25:31.836Z,101578.00
2023-08-08T11:28:01.048Z,101565.00
2023-08-08T11:30:34.973Z,101568.00
2023-08-08T11:35:35.388Z,101558.00
2023-08-08T11:38:07.732Z,101558.00
2023-08-08T11:40:34.680Z,101567.00
2023-08-08T11:43:01.952Z,101568.00
2023-08-08T11:45:29.379Z,101573.00
2023-08-08T11:47:57.105Z,101563.00
2023-08-08T11:50:25.726Z,101565.00
2023-08-08T11:52:54.606Z,101553.00
2023-08-08T11:55:25.226Z,101544.00
2023-08-08T11:57:52.003Z,101540.00
2023-08-08T12:00:19.327Z,101532.00
2023-08-08T12:02:54.020Z,101551.00
2023-08-08T12:05:23.593Z,101553.00
2023-08-08T12:07:51.350Z,101550.00
2023-08-08T12:10:23.549Z,101560.00
2023-08-08T12:12:56.240Z,101547.00
2023-08-08T12:15:22.951Z,101515.00
2023-08-08T12:17:54.958Z,101498.00
2023-08-08T12:20:21.641Z,101511.00
2023-08-08T12:22:48.879Z,101533.00
2023-08-08T12:25:15.735Z,101530.00
2023-08-08T12:27:44.603Z,101539.00
2023-08-08T12:30:11.404Z,101539.00
2023-08-08T12:32:38.150Z,101543.00
2023-08-08T12:35:05.307Z,101538.00
2023-08-08T12:37:36.505Z,101541.00
2023-08-08T12:40:05.370Z,101536.00
2023-08-08T12:42:34.846Z,101536.00
2023-08-08T12:45:01.764Z,101534.00
2023-08-08T12:47:33.307Z,101542.00
2023-08-08T12:50:02.489Z,101537.00
2023-08-08T12:52:31.356Z,101541.00
2023-08-08T12:54:58.048Z,101546.00
2023-08-08T12:57:24.832Z,101544.00
2023-08-08T12:59:51.469Z,101552.00
2023-08-08T13:02:20.658Z,101546.00
2023-08-08T13:04:47.699Z,101539.00
2023-08-08T13:07:14.408Z,101548.00
2023-08-08T13:09:45.695Z,101537.00
2023-08-08T13:12:14.502Z,101532.00
2023-08-08T13:14:41.147Z,101537.00
2023-08-08T13:17:07.825Z,101534.00
2023-08-08T13:19:34.472Z,101533.00
2023-08-08T13:22:04.169Z,101542.00
2023-08-08T13:24:34.164Z,101550.00
2023-08-08T13:27:00.817Z,101562.00
2023-08-08T13:29:27.525Z,101550.00
2023-08-08T13:31:54.186Z,101556.00
2023-08-08T13:34:20.913Z,101551.00
2023-08-08T13:36:52.479Z,101559.00
2023-08-08T13:39:21.363Z,101556.00
2023-08-08T13:41:48.084Z,101545.00
2023-08-08T13:44:14.833Z,101552.00
2023-08-08T13:46:41.607Z,101549.00
2023-08-08T13:49:10.519Z,101546.00
2023-08-08T13:51:37.221Z,101558.00
2023-08-08T13:54:04.111Z,101553.00
2023-08-08T13:56:30.949Z,101551.00
2023-08-08T13:58:59.816Z,101546.00
2023-08-08T14:01:26.526Z,101546.00
2023-08-08T14:03:53.688Z,101550.00
2023-08-08T14:06:20.471Z,101547.00
2023-08-08T14:08:47.129Z,101545.00
2023-08-08T14:11:13.800Z,101531.00
2023-08-08T14:13:41.899Z,101544.00
2023-08-08T14:16:08.591Z,101537.00
2023-08-08T14:18:40.054Z,101536.00
2023-08-08T14:21:06.789Z,101534.00
2023-08-08T14:23:35.880Z,101533.00
2023-08-08T14:26:07.217Z,101532.00
2023-08-08T14:28:33.898Z,101534.00
2023-08-08T14:31:03.281Z,101542.00
2023-08-08T14:33:29.890Z,101529.00
2023-08-08T14:35:56.761Z,101528.00
2023-08-08T14:38:26.386Z,101518.00
2023-08-08T14:40:57.774Z,101525.00
2023-08-08T14:43:26.919Z,101526.00
2023-08-08T14:45:58.452Z,101532.00
2023-08-08T14:48:28.256Z,101527.00
2023-08-08T14:50:57.427Z,101514.00
2023-08-08T14:53:26.549Z,101522.00
2023-08-08T14:55:53.190Z,101523.00
2023-08-08T14:58:23.171Z,101524.00
2023-08-08T15:00:56.254Z,101523.00
2023-08-08T15:03:23.018Z,101521.00
2023-08-08T15:05:49.988Z,101525.00
2023-08-08T15:08:18.802Z,101543.00
2023-08-08T15:10:45.992Z,101533.00
2023-08-08T15:13:13.069Z,101526.00
2023-08-08T15:15:39.731Z,101525.00
2023-08-08T15:18:06.377Z,101521.00
2023-08-08T15:20:33.128Z,101517.00
2023-08-08T15:23:01.833Z,101509.00
2023-08-08T15:25:28.579Z,101516.00
2023-08-08T15:28:00.131Z,101510.00
2023-08-08T15:30:26.842Z,101513.00
2023-08-08T15:32:55.994Z,101506.00
2023-08-08T15:35:26.708Z,101506.00
2023-08-08T15:37:54.313Z,101515.00
2023-08-08T15:40:21.371Z,101505.00
2023-08-08T15:42:50.548Z,101517.00
2023-08-08T15:45:19.425Z,101520.00
2023-08-08T15:47:48.983Z,101513.00
2023-08-08T15:50:17.893Z,101510.00
2023-08-08T15:52:44.623Z,101506.00
2023-08-08T15:55:18.223Z,101505.00
2023-08-08T15:57:44.975Z,101510.00
2023-08-08T16:00:12.397Z,101509.00
2023-08-08T16:02:41.309Z,101508.00
2023-08-08T16:05:10.744Z,101508.00
2023-08-08T16:07:39.675Z,101503.00
2023-08-08T16:10:08.564Z,101504.00
2023-08-08T16:12:37.511Z,101499.00
2023-08-08T16:15:06.854Z,101496.00
2023-08-08T16:17:33.739Z,101497.00
2023-08-08T16:20:02.597Z,101496.00
2023-08-08T16:22:31.483Z,101494.00
2023-08-08T16:24:58.165Z,101491.00
2023-08-08T16:27:24.764Z,101486.00
2023-08-08T16:29:53.675Z,101477.00
2023-08-08T16:32:20.404Z,101479.00
2023-08-08T16:34:47.088Z,101474.00
2023-08-08T16:37:13.817Z,101467.00
2023-08-08T16:39:45.309Z,101460.00
2023-08-08T16:42:16.332Z,101460.00
2023-08-08T16:44:43.149Z,101462.00
2023-08-08T16:47:10.208Z,101455.00
2023-08-08T16:49:37.266Z,101450.00
2023-08-08T16:52:04.497Z,101449.00
2023-08-08T16:54:31.545Z,101442.00
2023-08-08T16:56:58.196Z,101447.00
2023-08-08T16:59:29.805Z,101437.00
2023-08-08T17:01:56.648Z,101439.00
2023-08-08T17:04:23.464Z,101435.00
2023-08-08T17:06:50.107Z,101434.00
2023-08-08T17:09:16.850Z,101425.00
2023-08-08T17:11:43.496Z,101426.00
2023-08-08T17:14:10.292Z,101426.00
2023-08-08T17:16:39.595Z,101422.00
2023-08-08T17:19:06.336Z,101411.00
2023-08-08T17:21:35.547Z,101420.00
2023-08-08T17:24:05.032Z,101414.00
2023-08-08T17:26:31.747Z,101413.00
2023-08-08T17:29:00.572Z,101410.00
2023-08-08T17:31:27.250Z,101410.00
2023-08-08T17:33:55.561Z,101410.00
2023-08-08T17:36:27.105Z,101407.00
2023-08-08T17:38:56.241Z,101408.00
2023-08-08T17:41:24.992Z,101402.00
2023-08-08T17:43:51.690Z,101404.00
2023-08-08T17:46:18.361Z,101402.00
2023-08-08T17:48:45.057Z,101404.00
2023-08-08T17:51:13.979Z,101401.00
2023-08-08T17:53:40.664Z,101399.00
2023-08-08T17:56:07.277Z,101401.00
2023-08-08T17:58:33.998Z,101392.00
2023-08-08T18:01:05.874Z,101406.00
2023-08-08T18:03:34.839Z,101396.00
2023-08-08T18:06:01.564Z,101399.00
2023-08-08T18:08:33.149Z,101397.00
2023-08-08T18:11:02.230Z,101390.00
2023-08-08T18:13:28.900Z,101384.00
2023-08-08T18:15:56.159Z,101394.00
2023-08-08T18:18:24.611Z,101400.00
2023-08-08T18:20:51.370Z,101401.00
2023-08-08T18:23:21.964Z,101392.00
2023-08-08T18:25:52.204Z,101390.00
2023-08-08T18:28:19.285Z,101373.00
2023-08-08T18:30:46.583Z,101373.00
2023-08-08T18:33:13.580Z,101364.00
2023-08-08T18:35:40.198Z,101367.00
2023-08-08T18:38:06.959Z,101366.00
2023-08-08T18:40:36.127Z,101366.00
2023-08-08T18:43:07.522Z,101360.00
2023-08-08T18:45:36.432Z,101358.00
2023-08-08T18:48:07.028Z,101365.00
2023-08-08T18:50:33.759Z,101359.00
2023-08-08T18:53:00.572Z,101350.00
2023-08-08T18:55:28.804Z,101343.00
2023-08-08T18:57:59.360Z,101335.00
2023-08-08T19:00:28.525Z,101335.00
2023-08-08T19:02:55.225Z,101340.00
2023-08-08T19:05:22.076Z,101330.00
2023-08-08T19:07:48.929Z,101332.00
2023-08-08T19:10:16.541Z,101341.00
2023-08-08T19:12:43.670Z,101334.00
2023-08-08T19:15:10.738Z,101328.00
2023-08-08T19:17:53.571Z,101334.00
2023-08-08T19:20:24.798Z,101336.00
2023-08-08T19:22:54.979Z,101330.00
2023-08-08T19:25:24.051Z,101322.00
2023-08-08T19:27:50.685Z,101319.00
2023-08-08T19:30:19.545Z,101331.00
2023-08-08T19:32:46.318Z,101334.00
2023-08-08T19:35:12.978Z,101331.00
2023-08-08T19:37:39.641Z,101330.00
2023-08-08T19:40:09.207Z,101331.00
2023-08-08T19:42:38.997Z,101329.00
2023-08-08T19:45:08.456Z,101328.00
2023-08-08T19:47:35.134Z,101339.00
2023-08-08T19:50:01.859Z,101347.00
2023-08-08T19:52:28.797Z,101355.00
2023-08-08T19:54:55.480Z,101359.00
2023-08-08T19:57:22.384Z,101367.00
2023-08-08T19:59:50.543Z,101368.00
2023-08-08T20:02:17.398Z,101376.00
2023-08-08T20:04:44.237Z,101375.00
2023-08-08T20:07:15.612Z,101382.00
2023-08-08T20:09:42.342Z,101372.00
2023-08-08T20:12:09.012Z,101369.00
2023-08-08T20:14:35.911Z,101360.00
2023-08-08T20:17:03.323Z,101364.00
2023-08-08T20:19:35.131Z,101367.00
2023-08-08T20:22:06.533Z,101357.00
2023-08-08T20:24:33.167Z,101366.00
2023-08-08T20:26:59.823Z,101357.00
2023-08-08T20:29:27.122Z,101357.00
2023-08-08T20:31:53.833Z,101358.00
2023-08-08T20:34:20.805Z,101345.00
2023-08-08T20:36:49.834Z,101338.00
2023-08-08T20:39:17.579Z,101338.00
2023-08-08T20:41:46.384Z,101331.00
2023-08-08T20:44:13.162Z,101333.00
2023-08-08T20:46:39.952Z,101327.00
2023-08-08T20:49:06.586Z,101319.00
2023-08-08T20:51:33.260Z,101310.00
2023-08-08T20:53:59.957Z,101315.00
2023-08-08T20:56:26.660Z,101306.00
2023-08-08T20:58:54.156Z,101295.00
2023-08-08T21:01:23.299Z,101301.00
2023-08-08T21:03:52.957Z,101306.00
2023-08-08T21:06:24.907Z,101310.00
2023-08-08T21:08:51.552Z,101304.00
2023-08-08T21:11:18.198Z,101297.00
2023-08-08T21:13:44.800Z,101293.00
2023-08-08T21:16:13.713Z,101282.00
2023-08-08T21:18:42.762Z,101291.00
2023-08-08T21:21:11.801Z,101295.00
2023-08-08T21:23:40.761Z,101299.00
2023-08-08T21:26:07.447Z,101314.00
2023-08-08T21:28:36.315Z,101309.00
2023-08-08T21:31:05.289Z,101305.00
2023-08-08T21:33:34.461Z,101307.00
2023-08-08T21:36:01.179Z,101315.00
2023-08-08T21:38:27.960Z,101312.00
2023-08-08T21:40:54.637Z,101302.00
2023-08-08T21:43:23.738Z,101310.00
2023-08-08T21:45:50.375Z,101298.00
2023-08-08T21:48:17.115Z,101297.00
2023-08-08T21:50:43.813Z,101300.00
2023-08-08T21:53:10.516Z,101301.00
2023-08-08T21:55:37.246Z,101298.00
2023-08-08T21:58:06.371Z,101302.00
2023-08-08T22:00:33.322Z,101302.00
2023-08-08T22:03:02.558Z,101299.00
2023-08-08T22:05:29.362Z,101297.00
2023-08-08T22:08:02.176Z,101301.00
2023-08-08T22:10:35.206Z,101298.00
2023-08-08T22:13:02.896Z,101306.00
2023-08-08T22:15:31.843Z,101295.00
2023-08-08T22:18:11.953Z,101291.00
2023-08-08T22:20:42.366Z,101296.00
2023-08-08T22:23:19.666Z,101287.00
2023-08-08T22:25:52.945Z,101286.00
2023-08-08T22:28:19.889Z,101290.00
2023-08-08T22:30:49.243Z,101298.00
2023-08-08T22:33:17.582Z,101297.00
2023-08-08T22:35:44.305Z,101292.00
2023-08-08T22:38:11.199Z,101290.00
2023-08-08T22:40:40.187Z,101286.00
2023-08-08T22:43:06.828Z,101286.00
2023-08-08T22:45:34.073Z,101285.00
2023-08-08T22:48:04.031Z,101289.00
2023-08-08T22:50:30.794Z,101287.00
2023-08-08T22:52:57.477Z,101277.00
2023-08-08T22:55:28.577Z,101282.00
2023-08-08T22:57:55.457Z,101286.00
2023-08-08T23:00:22.141Z,101288.00
2023-08-08T23:02:48.960Z,101288.00
2023-08-08T23:05:15.812Z,101287.00
2023-08-08T23:07:43.751Z,101286.00
2023-08-08T23:10:11.098Z,101286.00
2023-08-08T23:12:37.846Z,101287.00
2023-08-08T23:15:05.155Z,101291.00
2023-08-08T23:17:31.924Z,101291.00
2023-08-08T23:19:58.684Z,101290.00
2023-08-08T23:22:25.554Z,101290.00
2023-08-08T23:24:52.214Z,101290.00
2023-08-08T23:27:18.946Z,101291.00
2023-08-08T23:29:47.865Z,101298.00
2023-08-08T23:32:14.580Z,101292.00
2023-08-08T23:34:41.348Z,101293.00
2023-08-08T23:37:19.866Z,101291.00
2023-08-08T23:39:49.749Z,101292.00
2023-08-08T23:42:18.827Z,101292.00
2023-08-08T23:44:47.683Z,101294.00
2023-08-08T23:47:14.306Z,101293.00
2023-08-08T23:49:40.992Z,101294.00
2023-08-08T23:52:10.586Z,101298.00
2023-08-08T23:54:37.263Z,101300.00
2023-08-08T23:57:04.329Z,101296.00
2023-08-08T23:59:31.264Z,101300.00
